Nearby METAR Reports

 

LIBV - Gioia Del Colle, Italy
Distance from station: PdPdWs 15km
Aktualizacja: 14/12/2018 15:55
Częściowe zachmurzenie
Częściowe zachmurzenie
 Wiatr z Pd
Wiatr: Pd 11 km/h
Temperatura: 13°C
Punkt Rosy: 12°C
Wilgotność: 94%
Ciśnienie: 1009 hPa
Clouds: Częściowe zachmurzenie
Visibility: 6 km
Cloud details: Częściowe zachmurzenie 244 m
2018/12/14 14:55 LIBV 141455Z 17006KT 6000 SCT008 13/12 Q1009 RMK OVC BKN110 VIS MIN 6000 WIND THR32 14007KT WIND THR14 15004KT WHT
LIBD - Bari/Palese Macc, Italy
Distance from station: PnPnZd 26km
Aktualizacja: 14/12/2018 16:20
Mist, Przeważnie pochmurno
Mist, Przeważnie pochmurno
 Wiatr z PnZd
Wiatr: PnZd 9 km/h
Temperatura: 10°C
Wind Chill: 9°C
Punkt Rosy: 8°C
Wilgotność: 88%
Ciśnienie: 1010 hPa
Podsumowanie: Mist
Clouds: Przeważnie pochmurno
Visibility: 5 km
Cloud details: Przeważnie pochmurno 122 m
2018/12/14 15:20 LIBD 141520Z 32005KT 290V250 5000 BR BKN004 10/08 Q1010
LIBH - Marina Di Ginosa, Italy
Distance from station: Pd 53km
Aktualizacja: 14/12/2018 15:55
Częściowe zachmurzenie
Częściowe zachmurzenie
 Wiatr z calm
Wiatr: Cisza
Temperatura: 15°C
Punkt Rosy: 13°C
Wilgotność: 88%
Ciśnienie: 1008 hPa
Clouds: Częściowe zachmurzenie
Visibility: 10 km
Cloud details: Częściowe zachmurzenie 1524 m
2018/12/14 14:55 LIBH 141455Z 00000KT 9999 SCT050 15/13 Q1008 RMK OVC BKN100 OVC180 QUK 2 QUL 1 SE VIS MAR 12 KM VIS MIN 9999
 
LIBG - Grottaglie(Civ/A, Italy
Distance from station: PdWs 61km
Aktualizacja: 14/12/2018 15:50
Częściowe zachmurzenie
Częściowe zachmurzenie
 Wiatr z Pd
Wiatr: Pd 9 km/h
Temperatura: 16°C
Punkt Rosy: 14°C
Wilgotność: 88%
Ciśnienie: 1009 hPa
Clouds: Częściowe zachmurzenie
Visibility: 10 km
Cloud details: Częściowe zachmurzenie 305 m
2018/12/14 14:50 LIBG 141450Z 17005KT 9999 SCT010 16/14 Q1009
LIBR - Brindisi/Casale, Italy
Distance from station: WsPdWs 96km
Aktualizacja: 14/12/2018 16:20
Few Clouds
Few Clouds
 Wiatr z Pd
Wiatr: Pd 11 km/h
Temperatura: 16°C
Punkt Rosy: 12°C
Wilgotność: 77%
Ciśnienie: 1010 hPa
Clouds: Few Clouds
Visibility: 10 km
Cloud details: Few Clouds 457 m
2018/12/14 15:20 LIBR 141520Z 18006KT 9999 FEW015 16/12 Q1010
LIBA - Amendola (it-Afb, Italy
Distance from station: PnZd 118km
Aktualizacja: 14/12/2018 15:55
Przeważnie pochmurno
Przeważnie pochmurno
 Wiatr z ZdPnZd
Wiatr: ZdPnZd 35 km/h
Temperatura: 7°C
Wind Chill: 3°C
Punkt Rosy: 5°C
Wilgotność: 87%
Ciśnienie: 1009 hPa
Clouds: Przeważnie pochmurno
Visibility: 7 km
Cloud details: Few Clouds 457 m
Częściowe zachmurzenie 914 m
Przeważnie pochmurno 1829 m
2018/12/14 14:55 LIBA 141455Z 29019KT 7000 FEW015 SCT030 BKN060 07/05 Q1009 RMK OVC VIS MIN 7000 WIND THR11 29017KT WIND THR29 /////KT WHT
 
LIBF - Foggia/Gino Lisa, Italy
Distance from station: ZdPnZd 126km
Aktualizacja: 14/12/2018 15:50
Przeważnie pochmurno
Przeważnie pochmurno
 Wiatr z PnZd
Wiatr: PnZd 26 km/h
Temperatura: 7°C
Wind Chill: 3°C
Punkt Rosy: 6°C
Wilgotność: 93%
Ciśnienie: 1010 hPa
Clouds: Przeważnie pochmurno
Visibility: 10 km
Cloud details: Przeważnie pochmurno 305 m
2018/12/14 14:50 LIBF 141450Z 31014KT 9999 BKN010 07/06 Q1010
LIBN - Lecce (it-Afb), Italy
Distance from station: PdWs 132km
Aktualizacja: 14/12/2018 15:55
Częściowe zachmurzenie
Częściowe zachmurzenie
 Wiatr z Pd
Wiatr: Pd 24 km/h
Temperatura: 15°C
Punkt Rosy: 13°C
Wilgotność: 88%
Ciśnienie: 1010 hPa
Clouds: Częściowe zachmurzenie
Visibility: 10 km
Cloud details: Few Clouds 549 m
Częściowe zachmurzenie 762 m
2018/12/14 14:55 LIBN 141455Z 18013KT 9999 FEW018 SCT025 15/13 Q1010 RMK BKN BKN200 VIS MIN 9999 WIND THR14 19012KT WIND THR32 19012KT BLU